sensor_id;sensor_type;location;lat;lon;timestamp;P1;durP1;ratioP1;P2;durP2;ratioP2
7031;SDS011;3557;48.880;8.328;2023-04-12T00:02:23;4.25;;;1.70;;
7031;SDS011;3557;48.880;8.328;2023-04-12T00:04:51;3.70;;;1.52;;
7031;SDS011;3557;48.880;8.328;2023-04-12T00:07:23;5.10;;;1.88;;
7031;SDS011;3557;48.880;8.328;2023-04-12T00:09:51;2.58;;;1.45;;
7031;SDS011;3557;48.880;8.328;2023-04-12T00:12:18;4.30;;;1.73;;
7031;SDS011;3557;48.880;8.328;2023-04-12T00:14:46;2.78;;;1.52;;
7031;SDS011;3557;48.880;8.328;2023-04-12T00:17:13;7.97;;;1.95;;
7031;SDS011;3557;48.880;8.328;2023-04-12T00:19:40;4.05;;;1.83;;
7031;SDS011;3557;48.880;8.328;2023-04-12T00:22:09;3.38;;;1.65;;
7031;SDS011;3557;48.880;8.328;2023-04-12T00:24:38;5.72;;;1.73;;
7031;SDS011;3557;48.880;8.328;2023-04-12T00:27:06;3.35;;;1.67;;
7031;SDS011;3557;48.880;8.328;2023-04-12T00:29:34;4.88;;;1.67;;
7031;SDS011;3557;48.880;8.328;2023-04-12T00:32:02;3.08;;;1.73;;
7031;SDS011;3557;48.880;8.328;2023-04-12T00:34:30;1.55;;;1.40;;
7031;SDS011;3557;48.880;8.328;2023-04-12T00:36:57;3.78;;;1.90;;
7031;SDS011;3557;48.880;8.328;2023-04-12T00:39:25;7.40;;;1.77;;
7031;SDS011;3557;48.880;8.328;2023-04-12T00:41:58;2.88;;;1.77;;
7031;SDS011;3557;48.880;8.328;2023-04-12T00:44:28;5.65;;;1.50;;
7031;SDS011;3557;48.880;8.328;2023-04-12T00:46:57;4.03;;;1.42;;
7031;SDS011;3557;48.880;8.328;2023-04-12T00:49:25;1.98;;;1.40;;
7031;SDS011;3557;48.880;8.328;2023-04-12T00:51:56;3.50;;;1.38;;
7031;SDS011;3557;48.880;8.328;2023-04-12T00:54:27;2.00;;;1.40;;
7031;SDS011;3557;48.880;8.328;2023-04-12T00:56:57;2.00;;;1.50;;
7031;SDS011;3557;48.880;8.328;2023-04-12T00:59:25;1.50;;;1.30;;
7031;SDS011;3557;48.880;8.328;2023-04-12T01:01:53;2.80;;;1.17;;
7031;SDS011;3557;48.880;8.328;2023-04-12T01:04:21;1.73;;;1.38;;
7031;SDS011;3557;48.880;8.328;2023-04-12T01:07:01;5.03;;;1.40;;
7031;SDS011;3557;48.880;8.328;2023-04-12T01:09:41;1.30;;;1.20;;
7031;SDS011;3557;48.880;8.328;2023-04-12T01:12:19;4.18;;;1.48;;
7031;SDS011;3557;48.880;8.328;2023-04-12T01:14:57;2.88;;;1.42;;
7031;SDS011;3557;48.880;8.328;2023-04-12T01:17:29;3.15;;;1.40;;
7031;SDS011;3557;48.880;8.328;2023-04-12T01:20:04;3.58;;;1.50;;
7031;SDS011;3557;48.880;8.328;2023-04-12T01:22:50;3.43;;;1.40;;
7031;SDS011;3557;48.880;8.328;2023-04-12T01:28:31;2.63;;;1.40;;
7031;SDS011;3557;48.880;8.328;2023-04-12T01:31:00;2.67;;;1.40;;
7031;SDS011;3557;48.880;8.328;2023-04-12T01:33:28;2.23;;;1.47;;
7031;SDS011;3557;48.880;8.328;2023-04-12T01:35:57;1.80;;;1.33;;
7031;SDS011;3557;48.880;8.328;2023-04-12T01:38:26;3.15;;;1.23;;
7031;SDS011;3557;48.880;8.328;2023-04-12T01:40:54;3.05;;;1.50;;
7031;SDS011;3557;48.880;8.328;2023-04-12T01:43:22;2.97;;;1.50;;
7031;SDS011;3557;48.880;8.328;2023-04-12T01:50:17;1.50;;;1.20;;
7031;SDS011;3557;48.880;8.328;2023-04-12T01:52:51;2.87;;;1.30;;
7031;SDS011;3557;48.880;8.328;2023-04-12T01:55:23;2.80;;;1.30;;
7031;SDS011;3557;48.880;8.328;2023-04-12T01:57:51;2.13;;;1.50;;
7031;SDS011;3557;48.880;8.328;2023-04-12T02:00:19;2.50;;;1.38;;
7031;SDS011;3557;48.880;8.328;2023-04-12T02:02:46;1.67;;;1.15;;
7031;SDS011;3557;48.880;8.328;2023-04-12T02:05:16;1.30;;;1.20;;
7031;SDS011;3557;48.880;8.328;2023-04-12T02:07:44;2.28;;;1.05;;
7031;SDS011;3557;48.880;8.328;2023-04-12T02:10:12;1.83;;;1.10;;
7031;SDS011;3557;48.880;8.328;2023-04-12T02:12:40;1.88;;;1.20;;
7031;SDS011;3557;48.880;8.328;2023-04-12T02:15:07;3.67;;;1.30;;
7031;SDS011;3557;48.880;8.328;2023-04-12T02:17:37;1.33;;;1.23;;
7031;SDS011;3557;48.880;8.328;2023-04-12T02:20:07;4.13;;;1.40;;
7031;SDS011;3557;48.880;8.328;2023-04-12T02:22:37;2.92;;;1.35;;
7031;SDS011;3557;48.880;8.328;2023-04-12T02:25:05;1.50;;;1.27;;
7031;SDS011;3557;48.880;8.328;2023-04-12T02:27:33;3.22;;;1.38;;
7031;SDS011;3557;48.880;8.328;2023-04-12T02:30:01;1.27;;;1.17;;
7031;SDS011;3557;48.880;8.328;2023-04-12T02:32:31;2.65;;;1.38;;
7031;SDS011;3557;48.880;8.328;2023-04-12T02:35:12;1.45;;;1.30;;
7031;SDS011;3557;48.880;8.328;2023-04-12T02:37:46;2.05;;;1.42;;
7031;SDS011;3557;48.880;8.328;2023-04-12T02:40:13;2.58;;;1.50;;
7031;SDS011;3557;48.880;8.328;2023-04-12T02:42:42;1.30;;;1.20;;
7031;SDS011;3557;48.880;8.328;2023-04-12T02:45:11;1.67;;;1.30;;
7031;SDS011;3557;48.880;8.328;2023-04-12T02:47:40;1.63;;;1.40;;
7031;SDS011;3557;48.880;8.328;2023-04-12T02:50:09;2.70;;;1.25;;
7031;SDS011;3557;48.880;8.328;2023-04-12T02:52:49;2.33;;;1.40;;
7031;SDS011;3557;48.880;8.328;2023-04-12T02:55:16;1.67;;;1.45;;
7031;SDS011;3557;48.880;8.328;2023-04-12T02:57:44;1.77;;;1.50;;
7031;SDS011;3557;48.880;8.328;2023-04-12T03:00:13;3.38;;;1.50;;
7031;SDS011;3557;48.880;8.328;2023-04-12T03:02:45;4.22;;;1.73;;
7031;SDS011;3557;48.880;8.328;2023-04-12T03:05:19;2.97;;;1.40;;
7031;SDS011;3557;48.880;8.328;2023-04-12T03:07:46;1.75;;;1.40;;
7031;SDS011;3557;48.880;8.328;2023-04-12T03:10:19;1.35;;;1.20;;
7031;SDS011;3557;48.880;8.328;2023-04-12T03:12:58;1.40;;;1.30;;
7031;SDS011;3557;48.880;8.328;2023-04-12T03:15:34;1.30;;;1.17;;
7031;SDS011;3557;48.880;8.328;2023-04-12T03:18:01;1.58;;;1.40;;
7031;SDS011;3557;48.880;8.328;2023-04-12T03:20:37;2.20;;;1.30;;
7031;SDS011;3557;48.880;8.328;2023-04-12T03:23:09;1.73;;;1.23;;
7031;SDS011;3557;48.880;8.328;2023-04-12T03:25:41;3.42;;;1.35;;
7031;SDS011;3557;48.880;8.328;2023-04-12T03:28:29;1.85;;;1.45;;
7031;SDS011;3557;48.880;8.328;2023-04-12T03:30:58;1.45;;;1.20;;
7031;SDS011;3557;48.880;8.328;2023-04-12T03:33:36;1.80;;;1.43;;
7031;SDS011;3557;48.880;8.328;2023-04-12T03:36:05;2.13;;;1.25;;
7031;SDS011;3557;48.880;8.328;2023-04-12T03:38:36;1.92;;;1.30;;
7031;SDS011;3557;48.880;8.328;2023-04-12T03:41:06;2.35;;;1.40;;
7031;SDS011;3557;48.880;8.328;2023-04-12T03:43:36;1.20;;;1.10;;
7031;SDS011;3557;48.880;8.328;2023-04-12T03:46:14;3.20;;;1.42;;
7031;SDS011;3557;48.880;8.328;2023-04-12T03:48:43;2.03;;;1.20;;
7031;SDS011;3557;48.880;8.328;2023-04-12T03:51:11;1.70;;;1.20;;
7031;SDS011;3557;48.880;8.328;2023-04-12T03:53:44;4.80;;;1.27;;
7031;SDS011;3557;48.880;8.328;2023-04-12T03:56:14;1.40;;;1.25;;
7031;SDS011;3557;48.880;8.328;2023-04-12T03:58:45;1.75;;;1.42;;
7031;SDS011;3557;48.880;8.328;2023-04-12T04:01:14;1.50;;;1.20;;
7031;SDS011;3557;48.880;8.328;2023-04-12T04:03:42;1.30;;;1.20;;
7031;SDS011;3557;48.880;8.328;2023-04-12T04:06:30;2.50;;;1.27;;
7031;SDS011;3557;48.880;8.328;2023-04-12T04:09:00;2.15;;;1.30;;
7031;SDS011;3557;48.880;8.328;2023-04-12T04:11:31;1.92;;;1.15;;
7031;SDS011;3557;48.880;8.328;2023-04-12T04:14:04;2.13;;;1.35;;
7031;SDS011;3557;48.880;8.328;2023-04-12T04:16:33;1.25;;;1.15;;
7031;SDS011;3557;48.880;8.328;2023-04-12T04:19:02;1.30;;;1.20;;
7031;SDS011;3557;48.880;8.328;2023-04-12T04:21:30;2.80;;;1.58;;
7031;SDS011;3557;48.880;8.328;2023-04-12T04:24:00;2.08;;;1.45;;
7031;SDS011;3557;48.880;8.328;2023-04-12T04:26:33;1.67;;;1.30;;
7031;SDS011;3557;48.880;8.328;2023-04-12T04:29:19;3.60;;;2.43;;
7031;SDS011;3557;48.880;8.328;2023-04-12T04:31:46;1.60;;;1.50;;
7031;SDS011;3557;48.880;8.328;2023-04-12T04:34:15;1.30;;;1.20;;
7031;SDS011;3557;48.880;8.328;2023-04-12T04:36:45;3.83;;;1.50;;
7031;SDS011;3557;48.880;8.328;2023-04-12T04:39:21;1.88;;;1.40;;
7031;SDS011;3557;48.880;8.328;2023-04-12T04:41:48;1.88;;;1.40;;
7031;SDS011;3557;48.880;8.328;2023-04-12T04:44:30;3.83;;;1.40;;
7031;SDS011;3557;48.880;8.328;2023-04-12T04:47:02;4.10;;;1.52;;
7031;SDS011;3557;48.880;8.328;2023-04-12T04:49:32;3.03;;;1.33;;
7031;SDS011;3557;48.880;8.328;2023-04-12T04:52:06;1.65;;;1.30;;
7031;SDS011;3557;48.880;8.328;2023-04-12T04:54:35;3.22;;;1.40;;
7031;SDS011;3557;48.880;8.328;2023-04-12T04:57:05;3.95;;;1.50;;
7031;SDS011;3557;48.880;8.328;2023-04-12T04:59:36;1.47;;;1.30;;
7031;SDS011;3557;48.880;8.328;2023-04-12T05:02:13;1.48;;;1.27;;
7031;SDS011;3557;48.880;8.328;2023-04-12T05:04:42;2.30;;;1.88;;
7031;SDS011;3557;48.880;8.328;2023-04-12T05:07:25;2.25;;;1.50;;
7031;SDS011;3557;48.880;8.328;2023-04-12T05:09:53;2.05;;;1.50;;
7031;SDS011;3557;48.880;8.328;2023-04-12T05:12:21;3.17;;;1.52;;
7031;SDS011;3557;48.880;8.328;2023-04-12T05:14:52;3.20;;;1.50;;
7031;SDS011;3557;48.880;8.328;2023-04-12T05:17:21;1.60;;;1.30;;
7031;SDS011;3557;48.880;8.328;2023-04-12T05:19:48;3.03;;;1.60;;
7031;SDS011;3557;48.880;8.328;2023-04-12T05:22:16;2.08;;;1.50;;
7031;SDS011;3557;48.880;8.328;2023-04-12T05:24:45;1.88;;;1.33;;
7031;SDS011;3557;48.880;8.328;2023-04-12T05:27:14;3.45;;;1.55;;
7031;SDS011;3557;48.880;8.328;2023-04-12T05:29:45;5.05;;;1.90;;
7031;SDS011;3557;48.880;8.328;2023-04-12T05:32:15;2.13;;;1.60;;
7031;SDS011;3557;48.880;8.328;2023-04-12T05:34:43;2.20;;;1.60;;
7031;SDS011;3557;48.880;8.328;2023-04-12T05:37:10;4.40;;;1.80;;
7031;SDS011;3557;48.880;8.328;2023-04-12T05:39:37;2.90;;;1.60;;
7031;SDS011;3557;48.880;8.328;2023-04-12T05:42:08;2.55;;;1.50;;
7031;SDS011;3557;48.880;8.328;2023-04-12T05:44:37;3.28;;;1.70;;
7031;SDS011;3557;48.880;8.328;2023-04-12T05:47:09;2.35;;;1.30;;
7031;SDS011;3557;48.880;8.328;2023-04-12T05:49:37;1.92;;;1.40;;
7031;SDS011;3557;48.880;8.328;2023-04-12T05:52:07;3.78;;;1.70;;
7031;SDS011;3557;48.880;8.328;2023-04-12T05:54:35;2.30;;;1.33;;
7031;SDS011;3557;48.880;8.328;2023-04-12T05:57:03;2.70;;;1.58;;
7031;SDS011;3557;48.880;8.328;2023-04-12T05:59:31;2.58;;;1.70;;
7031;SDS011;3557;48.880;8.328;2023-04-12T06:02:01;2.13;;;1.40;;
7031;SDS011;3557;48.880;8.328;2023-04-12T06:04:30;2.78;;;1.63;;
7031;SDS011;3557;48.880;8.328;2023-04-12T06:06:57;3.85;;;1.73;;
7031;SDS011;3557;48.880;8.328;2023-04-12T06:09:25;1.70;;;1.60;;
7031;SDS011;3557;48.880;8.328;2023-04-12T06:11:53;3.35;;;1.80;;
7031;SDS011;3557;48.880;8.328;2023-04-12T06:14:21;3.67;;;1.75;;
7031;SDS011;3557;48.880;8.328;2023-04-12T06:16:48;2.33;;;1.65;;
7031;SDS011;3557;48.880;8.328;2023-04-12T06:19:17;4.75;;;1.73;;
7031;SDS011;3557;48.880;8.328;2023-04-12T06:21:44;1.83;;;1.63;;
7031;SDS011;3557;48.880;8.328;2023-04-12T06:24:12;2.75;;;1.63;;
7031;SDS011;3557;48.880;8.328;2023-04-12T06:26:40;3.47;;;2.10;;
7031;SDS011;3557;48.880;8.328;2023-04-12T06:29:11;3.63;;;1.83;;
7031;SDS011;3557;48.880;8.328;2023-04-12T06:31:39;2.70;;;2.00;;
7031;SDS011;3557;48.880;8.328;2023-04-12T06:34:06;3.10;;;1.80;;
7031;SDS011;3557;48.880;8.328;2023-04-12T06:36:37;3.88;;;1.70;;
7031;SDS011;3557;48.880;8.328;2023-04-12T06:39:06;3.22;;;1.73;;
7031;SDS011;3557;48.880;8.328;2023-04-12T06:41:36;3.55;;;1.70;;
7031;SDS011;3557;48.880;8.328;2023-04-12T06:44:03;6.57;;;1.65;;
7031;SDS011;3557;48.880;8.328;2023-04-12T06:46:30;3.20;;;2.53;;
7031;SDS011;3557;48.880;8.328;2023-04-12T06:48:58;6.55;;;2.10;;
7031;SDS011;3557;48.880;8.328;2023-04-12T06:51:25;7.05;;;2.90;;
7031;SDS011;3557;48.880;8.328;2023-04-12T06:53:54;3.90;;;2.40;;
7031;SDS011;3557;48.880;8.328;2023-04-12T06:56:22;2.78;;;1.98;;
7031;SDS011;3557;48.880;8.328;2023-04-12T06:58:49;3.88;;;1.88;;
7031;SDS011;3557;48.880;8.328;2023-04-12T07:01:17;3.03;;;1.92;;
7031;SDS011;3557;48.880;8.328;2023-04-12T07:03:44;2.70;;;1.40;;
7031;SDS011;3557;48.880;8.328;2023-04-12T07:06:12;3.08;;;1.75;;
7031;SDS011;3557;48.880;8.328;2023-04-12T07:08:39;4.38;;;1.67;;
7031;SDS011;3557;48.880;8.328;2023-04-12T07:11:08;2.28;;;1.52;;
7031;SDS011;3557;48.880;8.328;2023-04-12T07:13:35;4.53;;;1.95;;
7031;SDS011;3557;48.880;8.328;2023-04-12T07:16:02;3.35;;;1.90;;
7031;SDS011;3557;48.880;8.328;2023-04-12T07:18:31;4.00;;;2.08;;
7031;SDS011;3557;48.880;8.328;2023-04-12T07:20:58;3.00;;;2.13;;
7031;SDS011;3557;48.880;8.328;2023-04-12T07:23:25;3.38;;;2.08;;
7031;SDS011;3557;48.880;8.328;2023-04-12T07:25:54;3.85;;;2.40;;
7031;SDS011;3557;48.880;8.328;2023-04-12T07:28:27;3.17;;;2.00;;
7031;SDS011;3557;48.880;8.328;2023-04-12T07:30:54;2.75;;;1.85;;
7031;SDS011;3557;48.880;8.328;2023-04-12T07:33:22;4.25;;;1.80;;
7031;SDS011;3557;48.880;8.328;2023-04-12T07:35:50;3.65;;;1.70;;
7031;SDS011;3557;48.880;8.328;2023-04-12T07:38:18;3.00;;;1.63;;
7031;SDS011;3557;48.880;8.328;2023-04-12T07:40:45;5.55;;;2.10;;
7031;SDS011;3557;48.880;8.328;2023-04-12T07:43:12;7.88;;;1.92;;
7031;SDS011;3557;48.880;8.328;2023-04-12T07:45:43;2.92;;;1.55;;
7031;SDS011;3557;48.880;8.328;2023-04-12T07:48:11;3.95;;;1.80;;
7031;SDS011;3557;48.880;8.328;2023-04-12T07:50:38;5.30;;;1.98;;
7031;SDS011;3557;48.880;8.328;2023-04-12T07:53:18;3.33;;;1.67;;
7031;SDS011;3557;48.880;8.328;2023-04-12T07:55:47;3.35;;;1.92;;
7031;SDS011;3557;48.880;8.328;2023-04-12T07:58:15;4.50;;;1.70;;
7031;SDS011;3557;48.880;8.328;2023-04-12T08:00:45;4.40;;;1.73;;
7031;SDS011;3557;48.880;8.328;2023-04-12T08:03:12;3.83;;;1.63;;
7031;SDS011;3557;48.880;8.328;2023-04-12T08:05:41;3.08;;;1.80;;
7031;SDS011;3557;48.880;8.328;2023-04-12T08:08:08;4.97;;;1.95;;
7031;SDS011;3557;48.880;8.328;2023-04-12T08:10:36;3.70;;;1.70;;
7031;SDS011;3557;48.880;8.328;2023-04-12T08:13:05;3.10;;;1.70;;
7031;SDS011;3557;48.880;8.328;2023-04-12T08:15:32;4.22;;;2.05;;
7031;SDS011;3557;48.880;8.328;2023-04-12T08:18:01;4.93;;;1.92;;
7031;SDS011;3557;48.880;8.328;2023-04-12T08:20:29;4.13;;;2.15;;
7031;SDS011;3557;48.880;8.328;2023-04-12T08:22:56;3.00;;;1.90;;
7031;SDS011;3557;48.880;8.328;2023-04-12T08:25:24;6.72;;;2.55;;
7031;SDS011;3557;48.880;8.328;2023-04-12T08:27:51;4.07;;;2.33;;
7031;SDS011;3557;48.880;8.328;2023-04-12T08:30:19;4.55;;;1.90;;
7031;SDS011;3557;48.880;8.328;2023-04-12T08:32:50;4.75;;;2.15;;
7031;SDS011;3557;48.880;8.328;2023-04-12T08:35:19;2.72;;;2.15;;
7031;SDS011;3557;48.880;8.328;2023-04-12T08:37:47;3.92;;;1.90;;
7031;SDS011;3557;48.880;8.328;2023-04-12T08:40:15;3.63;;;2.00;;
7031;SDS011;3557;48.880;8.328;2023-04-12T08:42:42;3.42;;;1.90;;
7031;SDS011;3557;48.880;8.328;2023-04-12T08:45:10;3.78;;;1.92;;
7031;SDS011;3557;48.880;8.328;2023-04-12T08:47:39;3.22;;;1.90;;
7031;SDS011;3557;48.880;8.328;2023-04-12T08:50:08;7.07;;;2.30;;
7031;SDS011;3557;48.880;8.328;2023-04-12T08:52:39;3.70;;;1.63;;
7031;SDS011;3557;48.880;8.328;2023-04-12T08:55:08;3.50;;;1.88;;
7031;SDS011;3557;48.880;8.328;2023-04-12T08:57:38;4.43;;;1.88;;
7031;SDS011;3557;48.880;8.328;2023-04-12T09:00:07;6.10;;;1.83;;
7031;SDS011;3557;48.880;8.328;2023-04-12T09:02:37;4.93;;;2.10;;
7031;SDS011;3557;48.880;8.328;2023-04-12T09:05:07;3.60;;;1.92;;
7031;SDS011;3557;48.880;8.328;2023-04-12T09:07:34;3.72;;;1.92;;
7031;SDS011;3557;48.880;8.328;2023-04-12T09:10:04;4.07;;;1.90;;
7031;SDS011;3557;48.880;8.328;2023-04-12T09:12:32;4.50;;;1.83;;
7031;SDS011;3557;48.880;8.328;2023-04-12T09:15:06;4.32;;;2.13;;
7031;SDS011;3557;48.880;8.328;2023-04-12T09:17:38;4.20;;;1.80;;
7031;SDS011;3557;48.880;8.328;2023-04-12T09:20:22;4.90;;;2.72;;
7031;SDS011;3557;48.880;8.328;2023-04-12T09:22:50;3.88;;;1.90;;
7031;SDS011;3557;48.880;8.328;2023-04-12T09:25:34;3.97;;;1.58;;
7031;SDS011;3557;48.880;8.328;2023-04-12T09:28:03;3.70;;;1.90;;
7031;SDS011;3557;48.880;8.328;2023-04-12T09:30:44;3.13;;;1.90;;
7031;SDS011;3557;48.880;8.328;2023-04-12T09:33:15;5.35;;;1.95;;
7031;SDS011;3557;48.880;8.328;2023-04-12T09:35:44;2.72;;;1.60;;
7031;SDS011;3557;48.880;8.328;2023-04-12T09:38:12;3.25;;;1.80;;
7031;SDS011;3557;48.880;8.328;2023-04-12T09:40:42;4.10;;;2.03;;
7031;SDS011;3557;48.880;8.328;2023-04-12T09:43:09;3.47;;;1.75;;
7031;SDS011;3557;48.880;8.328;2023-04-12T09:45:37;1.95;;;1.58;;
7031;SDS011;3557;48.880;8.328;2023-04-12T09:48:04;3.63;;;1.83;;
7031;SDS011;3557;48.880;8.328;2023-04-12T09:50:33;3.40;;;1.73;;
7031;SDS011;3557;48.880;8.328;2023-04-12T09:53:01;2.83;;;1.65;;
7031;SDS011;3557;48.880;8.328;2023-04-12T09:55:30;2.67;;;1.67;;
7031;SDS011;3557;48.880;8.328;2023-04-12T09:58:01;2.90;;;1.70;;
7031;SDS011;3557;48.880;8.328;2023-04-12T10:00:30;4.32;;;1.48;;
7031;SDS011;3557;48.880;8.328;2023-04-12T10:02:59;2.38;;;1.30;;
7031;SDS011;3557;48.880;8.328;2023-04-12T10:05:27;2.00;;;1.33;;
7031;SDS011;3557;48.880;8.328;2023-04-12T10:07:57;2.30;;;1.33;;
7031;SDS011;3557;48.880;8.328;2023-04-12T10:10:28;1.95;;;1.70;;
7031;SDS011;3557;48.880;8.328;2023-04-12T10:12:56;3.83;;;1.55;;
7031;SDS011;3557;48.880;8.328;2023-04-12T10:15:25;2.38;;;1.27;;
7031;SDS011;3557;48.880;8.328;2023-04-12T10:17:59;2.20;;;1.17;;
7031;SDS011;3557;48.880;8.328;2023-04-12T10:20:28;2.60;;;1.10;;
7031;SDS011;3557;48.880;8.328;2023-04-12T10:22:58;2.72;;;1.35;;
7031;SDS011;3557;48.880;8.328;2023-04-12T10:25:27;1.77;;;1.30;;
7031;SDS011;3557;48.880;8.328;2023-04-12T10:27:55;2.28;;;1.05;;
7031;SDS011;3557;48.880;8.328;2023-04-12T10:30:27;1.95;;;1.30;;
7031;SDS011;3557;48.880;8.328;2023-04-12T10:33:12;1.98;;;1.38;;
7031;SDS011;3557;48.880;8.328;2023-04-12T10:35:51;4.25;;;1.85;;
7031;SDS011;3557;48.880;8.328;2023-04-12T10:38:21;3.42;;;1.73;;
7031;SDS011;3557;48.880;8.328;2023-04-12T10:41:10;2.13;;;1.75;;
7031;SDS011;3557;48.880;8.328;2023-04-12T10:43:43;1.60;;;1.50;;
7031;SDS011;3557;48.880;8.328;2023-04-12T10:49:15;2.20;;;1.30;;
7031;SDS011;3557;48.880;8.328;2023-04-12T10:54:41;1.00;;;0.93;;
7031;SDS011;3557;48.880;8.328;2023-04-12T11:00:15;2.47;;;1.63;;
7031;SDS011;3557;48.880;8.328;2023-04-12T11:03:04;3.88;;;1.33;;
7031;SDS011;3557;48.880;8.328;2023-04-12T11:05:55;1.20;;;1.10;;
7031;SDS011;3557;48.880;8.328;2023-04-12T11:08:43;1.27;;;1.17;;
7031;SDS011;3557;48.880;8.328;2023-04-12T11:11:23;1.50;;;1.40;;
7031;SDS011;3557;48.880;8.328;2023-04-12T11:13:53;4.10;;;1.48;;
7031;SDS011;3557;48.880;8.328;2023-04-12T11:16:23;1.30;;;1.20;;
7031;SDS011;3557;48.880;8.328;2023-04-12T11:18:52;4.68;;;2.92;;
7031;SDS011;3557;48.880;8.328;2023-04-12T11:21:20;2.67;;;1.30;;
7031;SDS011;3557;48.880;8.328;2023-04-12T11:23:48;3.22;;;1.58;;
7031;SDS011;3557;48.880;8.328;2023-04-12T11:26:18;1.17;;;1.08;;
7031;SDS011;3557;48.880;8.328;2023-04-12T11:28:46;1.55;;;1.20;;
7031;SDS011;3557;48.880;8.328;2023-04-12T11:31:18;1.20;;;1.08;;
7031;SDS011;3557;48.880;8.328;2023-04-12T11:33:47;2.53;;;1.10;;
7031;SDS011;3557;48.880;8.328;2023-04-12T11:36:16;1.02;;;0.98;;
7031;SDS011;3557;48.880;8.328;2023-04-12T11:38:43;1.70;;;1.10;;
7031;SDS011;3557;48.880;8.328;2023-04-12T11:41:13;3.05;;;1.08;;
7031;SDS011;3557;48.880;8.328;2023-04-12T11:43:41;0.90;;;0.90;;
7031;SDS011;3557;48.880;8.328;2023-04-12T11:46:08;1.58;;;1.48;;
7031;SDS011;3557;48.880;8.328;2023-04-12T11:48:36;1.42;;;1.10;;
7031;SDS011;3557;48.880;8.328;2023-04-12T11:51:18;1.00;;;1.00;;
7031;SDS011;3557;48.880;8.328;2023-04-12T11:53:51;1.38;;;1.10;;
7031;SDS011;3557;48.880;8.328;2023-04-12T11:56:20;2.15;;;1.40;;
7031;SDS011;3557;48.880;8.328;2023-04-12T11:58:48;2.15;;;1.40;;
7031;SDS011;3557;48.880;8.328;2023-04-12T12:01:15;1.83;;;1.45;;
7031;SDS011;3557;48.880;8.328;2023-04-12T12:03:44;0.85;;;0.82;;
7031;SDS011;3557;48.880;8.328;2023-04-12T12:06:11;1.20;;;1.10;;
7031;SDS011;3557;48.880;8.328;2023-04-12T12:08:40;1.88;;;1.20;;
7031;SDS011;3557;48.880;8.328;2023-04-12T12:11:08;0.80;;;0.80;;
7031;SDS011;3557;48.880;8.328;2023-04-12T12:13:42;1.15;;;1.05;;
7031;SDS011;3557;48.880;8.328;2023-04-12T12:16:11;1.15;;;1.05;;
7031;SDS011;3557;48.880;8.328;2023-04-12T12:18:41;1.17;;;1.10;;
7031;SDS011;3557;48.880;8.328;2023-04-12T12:21:10;1.20;;;1.17;;
7031;SDS011;3557;48.880;8.328;2023-04-12T12:23:41;1.45;;;0.80;;
7031;SDS011;3557;48.880;8.328;2023-04-12T12:26:09;2.85;;;0.90;;
7031;SDS011;3557;48.880;8.328;2023-04-12T12:28:50;1.73;;;1.02;;
7031;SDS011;3557;48.880;8.328;2023-04-12T12:31:19;1.83;;;1.20;;
7031;SDS011;3557;48.880;8.328;2023-04-12T12:33:48;0.98;;;0.90;;
7031;SDS011;3557;48.880;8.328;2023-04-12T12:36:27;2.78;;;1.13;;
7031;SDS011;3557;48.880;8.328;2023-04-12T12:39:01;0.88;;;0.85;;
7031;SDS011;3557;48.880;8.328;2023-04-12T12:41:32;1.60;;;0.98;;
7031;SDS011;3557;48.880;8.328;2023-04-12T12:44:00;1.10;;;1.00;;
7031;SDS011;3557;48.880;8.328;2023-04-12T12:46:28;1.05;;;1.00;;
7031;SDS011;3557;48.880;8.328;2023-04-12T12:48:55;2.55;;;1.08;;
7031;SDS011;3557;48.880;8.328;2023-04-12T12:51:23;1.95;;;1.58;;
7031;SDS011;3557;48.880;8.328;2023-04-12T12:53:50;2.65;;;1.52;;
7031;SDS011;3557;48.880;8.328;2023-04-12T12:56:19;1.27;;;1.17;;
7031;SDS011;3557;48.880;8.328;2023-04-12T12:58:46;1.85;;;1.10;;
7031;SDS011;3557;48.880;8.328;2023-04-12T13:01:14;1.55;;;1.10;;
7031;SDS011;3557;48.880;8.328;2023-04-12T13:03:41;5.13;;;1.08;;
7031;SDS011;3557;48.880;8.328;2023-04-12T13:06:09;1.17;;;1.08;;
7031;SDS011;3557;48.880;8.328;2023-04-12T13:08:36;1.52;;;1.00;;
7031;SDS011;3557;48.880;8.328;2023-04-12T13:11:04;1.75;;;1.00;;
7031;SDS011;3557;48.880;8.328;2023-04-12T13:13:33;1.83;;;1.10;;
7031;SDS011;3557;48.880;8.328;2023-04-12T13:16:01;3.08;;;1.00;;
7031;SDS011;3557;48.880;8.328;2023-04-12T13:18:29;1.23;;;1.10;;
7031;SDS011;3557;48.880;8.328;2023-04-12T13:20:56;2.60;;;1.10;;
7031;SDS011;3557;48.880;8.328;2023-04-12T13:23:23;3.30;;;1.25;;
7031;SDS011;3557;48.880;8.328;2023-04-12T13:25:51;1.23;;;1.05;;
7031;SDS011;3557;48.880;8.328;2023-04-12T13:28:18;1.35;;;1.20;;
7031;SDS011;3557;48.880;8.328;2023-04-12T13:30:47;1.20;;;1.10;;
7031;SDS011;3557;48.880;8.328;2023-04-12T13:33:14;1.15;;;1.05;;
7031;SDS011;3557;48.880;8.328;2023-04-12T13:35:42;3.30;;;1.20;;
7031;SDS011;3557;48.880;8.328;2023-04-12T13:38:10;1.30;;;1.20;;
7031;SDS011;3557;48.880;8.328;2023-04-12T13:40:37;1.40;;;1.00;;
7031;SDS011;3557;48.880;8.328;2023-04-12T13:43:04;1.58;;;1.10;;
7031;SDS011;3557;48.880;8.328;2023-04-12T13:45:32;2.88;;;1.20;;
7031;SDS011;3557;48.880;8.328;2023-04-12T13:48:01;2.63;;;1.30;;
7031;SDS011;3557;48.880;8.328;2023-04-12T13:50:29;1.70;;;1.10;;
7031;SDS011;3557;48.880;8.328;2023-04-12T13:52:56;1.60;;;1.10;;
7031;SDS011;3557;48.880;8.328;2023-04-12T13:55:24;2.28;;;1.15;;
7031;SDS011;3557;48.880;8.328;2023-04-12T13:57:51;1.88;;;1.15;;
7031;SDS011;3557;48.880;8.328;2023-04-12T14:00:19;1.65;;;1.27;;
7031;SDS011;3557;48.880;8.328;2023-04-12T14:02:47;1.23;;;1.13;;
7031;SDS011;3557;48.880;8.328;2023-04-12T14:05:16;2.30;;;1.08;;
7031;SDS011;3557;48.880;8.328;2023-04-12T14:07:44;1.25;;;1.00;;
7031;SDS011;3557;48.880;8.328;2023-04-12T14:10:14;1.20;;;0.95;;
7031;SDS011;3557;48.880;8.328;2023-04-12T14:12:41;1.30;;;1.20;;
7031;SDS011;3557;48.880;8.328;2023-04-12T14:15:08;1.95;;;1.38;;
7031;SDS011;3557;48.880;8.328;2023-04-12T14:17:36;2.15;;;1.23;;
7031;SDS011;3557;48.880;8.328;2023-04-12T14:20:04;2.25;;;1.40;;
7031;SDS011;3557;48.880;8.328;2023-04-12T14:22:35;2.03;;;1.10;;
7031;SDS011;3557;48.880;8.328;2023-04-12T14:25:03;0.98;;;0.95;;
7031;SDS011;3557;48.880;8.328;2023-04-12T14:27:32;1.55;;;0.85;;
7031;SDS011;3557;48.880;8.328;2023-04-12T14:30:00;0.60;;;0.60;;
7031;SDS011;3557;48.880;8.328;2023-04-12T14:32:28;1.55;;;1.27;;
7031;SDS011;3557;48.880;8.328;2023-04-12T14:34:55;3.20;;;1.17;;
7031;SDS011;3557;48.880;8.328;2023-04-12T14:37:23;2.15;;;1.08;;
7031;SDS011;3557;48.880;8.328;2023-04-12T14:39:53;1.13;;;1.00;;
7031;SDS011;3557;48.880;8.328;2023-04-12T14:42:20;1.35;;;1.23;;
7031;SDS011;3557;48.880;8.328;2023-04-12T14:44:48;2.40;;;1.10;;
7031;SDS011;3557;48.880;8.328;2023-04-12T14:47:16;1.48;;;1.15;;
7031;SDS011;3557;48.880;8.328;2023-04-12T14:49:43;1.33;;;0.95;;
7031;SDS011;3557;48.880;8.328;2023-04-12T14:52:11;2.50;;;1.40;;
7031;SDS011;3557;48.880;8.328;2023-04-12T14:54:38;2.05;;;1.20;;
7031;SDS011;3557;48.880;8.328;2023-04-12T14:57:07;1.10;;;1.00;;
7031;SDS011;3557;48.880;8.328;2023-04-12T14:59:35;1.50;;;1.20;;
7031;SDS011;3557;48.880;8.328;2023-04-12T15:02:02;1.67;;;1.50;;
7031;SDS011;3557;48.880;8.328;2023-04-12T15:04:30;1.88;;;1.52;;
7031;SDS011;3557;48.880;8.328;2023-04-12T15:06:58;2.30;;;1.30;;
7031;SDS011;3557;48.880;8.328;2023-04-12T15:09:25;2.67;;;1.83;;
7031;SDS011;3557;48.880;8.328;2023-04-12T15:11:53;4.93;;;2.00;;
7031;SDS011;3557;48.880;8.328;2023-04-12T15:14:26;4.10;;;2.25;;
7031;SDS011;3557;48.880;8.328;2023-04-12T15:16:54;1.80;;;1.50;;
7031;SDS011;3557;48.880;8.328;2023-04-12T15:19:21;3.80;;;1.20;;
7031;SDS011;3557;48.880;8.328;2023-04-12T15:21:49;1.55;;;1.35;;
7031;SDS011;3557;48.880;8.328;2023-04-12T15:24:19;2.13;;;1.60;;
7031;SDS011;3557;48.880;8.328;2023-04-12T15:26:47;1.40;;;1.30;;
7031;SDS011;3557;48.880;8.328;2023-04-12T15:29:16;2.72;;;1.33;;
7031;SDS011;3557;48.880;8.328;2023-04-12T15:31:46;3.85;;;1.88;;
7031;SDS011;3557;48.880;8.328;2023-04-12T15:34:14;1.17;;;0.90;;
7031;SDS011;3557;48.880;8.328;2023-04-12T15:36:41;1.75;;;0.98;;
7031;SDS011;3557;48.880;8.328;2023-04-12T15:39:10;2.45;;;1.00;;
7031;SDS011;3557;48.880;8.328;2023-04-12T15:41:39;3.70;;;2.40;;
7031;SDS011;3557;48.880;8.328;2023-04-12T15:44:08;1.80;;;1.52;;
7031;SDS011;3557;48.880;8.328;2023-04-12T15:46:37;2.53;;;2.00;;
7031;SDS011;3557;48.880;8.328;2023-04-12T15:49:06;2.53;;;1.70;;